createdAt,value
2023-11-06T00:02:23.108Z,95758.06
2023-11-06T00:04:51.187Z,95779.34
2023-11-06T00:07:18.768Z,95780.56
2023-11-06T00:09:46.719Z,95794.16
2023-11-06T00:12:14.428Z,95785.47
2023-11-06T00:14:43.512Z,95780.69
2023-11-06T00:17:11.207Z,95782.53
2023-11-06T00:19:38.845Z,95801.13
2023-11-06T00:22:07.686Z,95794.03
2023-11-06T00:24:35.687Z,95786.56
2023-11-06T00:27:03.350Z,95787.22
2023-11-06T00:29:31.023Z,95791.22
2023-11-06T00:32:02.030Z,95798.81
2023-11-06T00:34:29.801Z,95794.75
2023-11-06T00:36:57.421Z,95801.56
2023-11-06T00:39:25.667Z,95798.72
2023-11-06T00:41:53.288Z,95805.94
2023-11-06T00:44:20.964Z,95800.13
2023-11-06T00:46:48.595Z,95815.38
2023-11-06T00:49:17.548Z,95813.63
2023-11-06T00:51:45.125Z,95812.72
2023-11-06T00:54:12.763Z,95815.22
2023-11-06T00:56:40.418Z,95812.75
2023-11-06T00:59:08.029Z,95824.25
2023-11-06T01:01:35.671Z,95819.44
2023-11-06T01:04:03.338Z,95833.44
2023-11-06T01:06:32.268Z,95830.81
2023-11-06T01:08:59.831Z,95811.03
2023-11-06T01:11:27.412Z,95820.97
2023-11-06T01:13:55.636Z,95823.34
2023-11-06T01:16:23.798Z,95818.66
2023-11-06T01:18:51.503Z,95830.47
2023-11-06T01:21:19.179Z,95822.72
2023-11-06T01:23:48.085Z,95828.28
2023-11-06T01:26:15.706Z,95827.63
2023-11-06T01:28:43.384Z,95831.38
2023-11-06T01:31:10.993Z,95832.41
2023-11-06T01:33:38.653Z,95826.66
2023-11-06T01:36:07.038Z,95831.28
2023-11-06T01:38:34.606Z,95840.50
2023-11-06T01:41:03.659Z,95842.78
2023-11-06T01:43:32.816Z,95841.38
2023-11-06T01:46:00.439Z,95832.81
2023-11-06T01:48:30.569Z,95835.97
2023-11-06T01:50:59.044Z,95846.97
2023-11-06T01:53:31.066Z,95844.97
2023-11-06T01:55:59.107Z,95851.97
2023-11-06T01:58:29.946Z,95850.53
2023-11-06T02:00:57.738Z,95853.09
2023-11-06T02:03:27.370Z,95857.44
2023-11-06T02:05:56.638Z,95859.13
2023-11-06T02:08:24.394Z,95863.34
2023-11-06T02:10:52.508Z,95861.50
2023-11-06T02:13:21.009Z,95860.66
2023-11-06T02:15:49.913Z,95854.91
2023-11-06T02:18:17.620Z,95858.47
2023-11-06T02:20:45.302Z,95861.13
2023-11-06T02:23:14.279Z,95864.22
2023-11-06T02:25:42.041Z,95858.94
2023-11-06T02:28:10.452Z,95865.69
2023-11-06T02:30:40.124Z,95868.13
2023-11-06T02:33:07.745Z,95871.41
2023-11-06T02:35:35.380Z,95872.16
2023-11-06T02:38:03.642Z,95875.66
2023-11-06T02:40:32.748Z,95882.28
2023-11-06T02:43:00.350Z,95881.22
2023-11-06T02:45:27.981Z,95877.28
2023-11-06T02:47:55.901Z,95889.41
2023-11-06T02:50:22.710Z,95884.31
2023-11-06T02:52:50.571Z,95879.94
2023-11-06T02:55:18.343Z,95886.47
2023-11-06T02:57:47.278Z,95893.03
2023-11-06T03:00:15.515Z,95894.25
2023-11-06T03:02:43.859Z,95888.50
2023-11-06T03:05:12.510Z,95900.66
2023-11-06T03:07:40.173Z,95900.69
2023-11-06T03:10:09.618Z,95906.09
2023-11-06T03:12:37.214Z,95904.84
2023-11-06T03:15:07.913Z,95905.44
2023-11-06T03:17:35.632Z,95905.75
2023-11-06T03:20:06.955Z,95914.63
2023-11-06T03:22:34.528Z,95925.66
2023-11-06T03:25:02.118Z,95922.28
2023-11-06T03:27:29.696Z,95921.03
2023-11-06T03:29:57.339Z,95914.91
2023-11-06T03:32:26.363Z,95915.44
2023-11-06T03:34:54.005Z,95937.53
2023-11-06T03:37:21.613Z,95923.22
2023-11-06T03:39:49.222Z,95918.25
2023-11-06T03:42:16.801Z,95927.75
2023-11-06T03:44:44.398Z,95936.03
2023-11-06T03:47:12.065Z,95938.78
2023-11-06T03:49:41.423Z,95936.13
2023-11-06T03:52:12.471Z,95933.53
2023-11-06T03:54:40.264Z,95925.81
2023-11-06T03:57:08.897Z,95923.44
2023-11-06T03:59:36.731Z,95938.25
2023-11-06T04:02:04.625Z,95928.28
2023-11-06T04:04:32.479Z,95942.88
2023-11-06T04:07:01.442Z,95947.09
2023-11-06T04:09:29.034Z,95946.00
2023-11-06T04:11:56.599Z,95953.31
2023-11-06T04:14:24.603Z,95951.44
2023-11-06T04:16:52.291Z,95959.84
2023-11-06T04:19:19.890Z,95955.16
2023-11-06T04:21:47.512Z,95959.53
2023-11-06T04:24:17.901Z,95958.16
2023-11-06T04:26:45.520Z,95970.44
2023-11-06T04:29:13.308Z,95973.66
2023-11-06T04:31:41.708Z,95957.66
2023-11-06T04:34:09.316Z,95963.06
2023-11-06T04:36:37.017Z,95963.72
2023-11-06T04:39:05.189Z,95968.81
2023-11-06T04:41:34.173Z,95972.94
2023-11-06T04:44:01.757Z,95968.75
2023-11-06T04:46:29.353Z,95978.00
2023-11-06T04:48:57.020Z,95970.66
2023-11-06T04:51:24.696Z,95976.41
2023-11-06T04:53:52.306Z,95968.56
2023-11-06T04:56:20.402Z,95976.72
2023-11-06T04:58:49.369Z,95971.34
2023-11-06T05:01:18.453Z,95977.94
2023-11-06T05:03:46.152Z,95984.81
2023-11-06T05:06:13.826Z,95974.41
2023-11-06T05:08:41.453Z,95977.88
2023-11-06T05:11:09.117Z,95977.13
2023-11-06T05:13:36.714Z,95979.91
2023-11-06T05:16:06.548Z,95986.09
2023-11-06T05:18:34.307Z,95982.09
2023-11-06T05:21:02.130Z,95973.50
2023-11-06T05:23:29.867Z,95975.94
2023-11-06T05:25:57.787Z,95986.47
2023-11-06T05:28:25.491Z,95989.00
2023-11-06T05:30:53.037Z,95982.69
2023-11-06T05:33:22.052Z,95986.66
2023-11-06T05:35:49.697Z,95992.41
2023-11-06T05:38:17.429Z,95993.72
2023-11-06T05:40:45.016Z,95986.41
2023-11-06T05:43:12.835Z,95988.53
2023-11-06T05:45:40.491Z,95987.53
2023-11-06T05:48:08.183Z,95992.91
2023-11-06T05:50:37.412Z,95991.91
2023-11-06T05:53:05.840Z,95998.44
2023-11-06T05:55:33.953Z,96004.63
2023-11-06T05:58:02.253Z,96010.56
2023-11-06T06:00:31.998Z,96006.94
2023-11-06T06:03:02.042Z,96013.47
2023-11-06T06:05:29.740Z,96019.13
2023-11-06T06:07:58.872Z,96019.28
2023-11-06T06:10:26.636Z,96022.91
2023-11-06T06:12:54.331Z,96017.34
2023-11-06T06:15:21.867Z,96014.44
2023-11-06T06:17:49.555Z,96030.16
2023-11-06T06:20:17.205Z,96028.13
2023-11-06T06:22:44.898Z,96020.38
2023-11-06T06:25:14.149Z,96029.31
2023-11-06T06:27:41.767Z,96030.38
2023-11-06T06:30:10.769Z,96047.34
2023-11-06T06:32:38.780Z,96051.75
2023-11-06T06:35:07.335Z,96051.59
2023-11-06T06:37:35.007Z,96041.69
2023-11-06T06:40:07.258Z,96049.72
2023-11-06T06:42:36.678Z,96036.06
2023-11-06T06:45:05.778Z,96038.91
2023-11-06T06:47:33.658Z,96042.56
2023-11-06T06:50:01.595Z,96047.59
2023-11-06T06:52:29.798Z,96052.44
2023-11-06T06:54:57.447Z,96050.88
2023-11-06T06:57:25.039Z,96049.84
2023-11-06T06:59:54.169Z,96058.44
2023-11-06T07:02:21.769Z,96057.19
2023-11-06T07:04:49.466Z,96053.31
2023-11-06T07:07:17.179Z,96053.31
2023-11-06T07:09:44.805Z,96058.28
2023-11-06T07:12:15.140Z,96060.31
2023-11-06T07:14:42.835Z,96067.59
2023-11-06T07:17:11.754Z,96068.41
2023-11-06T07:19:39.460Z,96069.19
2023-11-06T07:22:07.588Z,96063.41
2023-11-06T07:24:36.078Z,96066.84
2023-11-06T07:27:05.026Z,96075.09
2023-11-06T07:29:32.849Z,96081.78
2023-11-06T07:32:00.508Z,96079.91
2023-11-06T07:34:29.489Z,96076.81
2023-11-06T07:36:57.257Z,96082.44
2023-11-06T07:39:24.870Z,96083.03
2023-11-06T07:41:52.484Z,96085.81
2023-11-06T07:44:20.126Z,96085.81
2023-11-06T07:46:47.743Z,96092.66
2023-11-06T07:49:15.400Z,96093.13
2023-11-06T07:51:44.424Z,96097.06
2023-11-06T07:54:12.083Z,96103.28
2023-11-06T07:56:39.732Z,96103.41
2023-11-06T07:59:07.416Z,96108.00
2023-11-06T08:01:35.318Z,96104.81
2023-11-06T08:04:03.663Z,96105.63
2023-11-06T08:06:31.379Z,96099.41
2023-11-06T08:09:00.374Z,96110.81
2023-11-06T08:11:27.976Z,96113.28
2023-11-06T08:13:55.621Z,96107.94
2023-11-06T08:16:23.195Z,96103.53
2023-11-06T08:18:51.066Z,96106.28
2023-11-06T08:21:18.714Z,96099.50
2023-11-06T08:23:46.317Z,96103.34
2023-11-06T08:26:15.584Z,96110.28
2023-11-06T08:28:43.286Z,96115.78
2023-11-06T08:31:11.311Z,96114.22
2023-11-06T08:33:39.211Z,96116.94
2023-11-06T08:36:08.256Z,96113.84
2023-11-06T08:38:36.825Z,96123.59
2023-11-06T08:41:08.503Z,96116.81
2023-11-06T08:43:38.004Z,96127.44
2023-11-06T08:46:06.374Z,96120.19
2023-11-06T08:48:34.872Z,96120.66
2023-11-06T08:51:02.576Z,96122.03
2023-11-06T08:53:30.963Z,96126.38
2023-11-06T08:55:58.690Z,96128.44
2023-11-06T08:58:26.433Z,96124.91
2023-11-06T09:00:55.478Z,96118.41
2023-11-06T09:03:23.696Z,96121.22
2023-11-06T09:05:51.571Z,96122.94
2023-11-06T09:08:19.474Z,96113.13
2023-11-06T09:10:47.137Z,96126.41
2023-11-06T09:13:14.789Z,96127.75
2023-11-06T09:15:42.573Z,96125.78
2023-11-06T09:18:12.416Z,96123.78
2023-11-06T09:20:40.093Z,96123.59
2023-11-06T09:23:08.312Z,96124.59
2023-11-06T09:25:36.177Z,96150.19
2023-11-06T09:28:03.932Z,96140.00
2023-11-06T09:30:31.542Z,96138.78
2023-11-06T09:33:00.973Z,96153.31
2023-11-06T09:35:30.453Z,96145.78
2023-11-06T09:37:58.060Z,96145.59
2023-11-06T09:40:26.505Z,96151.97
2023-11-06T09:42:54.254Z,96143.34
2023-11-06T09:45:21.955Z,96155.41
2023-11-06T09:47:51.730Z,96149.09
2023-11-06T09:50:21.700Z,96159.31
2023-11-06T09:52:51.613Z,96157.00
2023-11-06T09:55:20.589Z,96153.84
2023-11-06T09:57:50.534Z,96164.25
2023-11-06T10:00:19.123Z,96167.41
2023-11-06T10:02:50.070Z,96164.06
2023-11-06T10:05:21.481Z,96167.84
2023-11-06T10:07:53.799Z,96166.63
2023-11-06T10:10:23.428Z,96165.25
2023-11-06T10:13:02.981Z,96170.03
2023-11-06T10:15:31.184Z,96166.13
2023-11-06T10:18:13.876Z,96163.91
2023-11-06T10:20:45.718Z,96166.28
2023-11-06T10:23:23.241Z,96160.97
2023-11-06T10:25:51.028Z,96176.50
2023-11-06T10:28:19.685Z,96175.78
2023-11-06T10:30:48.867Z,96166.56
2023-11-06T10:33:18.000Z,96179.31
2023-11-06T10:35:46.528Z,96179.44
2023-11-06T10:38:30.731Z,96173.09
2023-11-06T10:41:00.420Z,96162.88
2023-11-06T10:43:28.527Z,96168.16
2023-11-06T10:45:57.300Z,96163.06
2023-11-06T10:48:35.912Z,96171.66
2023-11-06T10:51:05.840Z,96161.41
2023-11-06T10:53:37.847Z,96172.81
2023-11-06T10:56:07.728Z,96169.69
2023-11-06T10:58:37.423Z,96163.69
2023-11-06T11:01:08.984Z,96170.03
2023-11-06T11:03:38.830Z,96161.25
2023-11-06T11:06:10.492Z,96182.69
2023-11-06T11:08:40.090Z,96169.38
2023-11-06T11:11:10.445Z,96168.44
2023-11-06T11:13:38.921Z,96170.94
2023-11-06T11:16:40.171Z,96170.97
2023-11-06T11:19:22.043Z,96172.31
2023-11-06T11:22:02.681Z,96164.47
2023-11-06T11:24:54.169Z,96156.06
2023-11-06T11:27:23.834Z,96160.38
2023-11-06T11:30:28.428Z,96163.75
2023-11-06T11:32:57.638Z,96164.03
2023-11-06T11:35:58.773Z,96165.94
2023-11-06T11:38:34.620Z,96173.00
2023-11-06T11:41:16.781Z,96171.69
2023-11-06T11:43:45.303Z,96171.69
2023-11-06T11:46:56.298Z,96176.59
2023-11-06T11:49:46.443Z,96174.69
2023-11-06T11:52:38.362Z,96187.69
2023-11-06T11:55:32.383Z,96174.84
2023-11-06T11:58:07.241Z,96183.03
2023-11-06T12:00:36.653Z,96196.56
2023-11-06T12:03:09.143Z,96176.19
2023-11-06T12:05:38.699Z,96182.09
2023-11-06T12:08:17.011Z,96172.00
2023-11-06T12:10:45.624Z,96203.78
2023-11-06T12:13:19.017Z,96179.03
2023-11-06T12:15:48.275Z,96178.03
2023-11-06T12:18:17.780Z,96180.75
2023-11-06T12:20:47.224Z,96186.63
2023-11-06T12:23:14.976Z,96173.53
2023-11-06T12:25:43.024Z,96182.53
2023-11-06T12:28:12.427Z,96182.13
2023-11-06T12:30:43.915Z,96170.38
2023-11-06T12:33:13.374Z,96179.25
2023-11-06T12:35:41.802Z,96170.63
2023-11-06T12:38:09.545Z,96171.41
2023-11-06T12:40:43.508Z,96166.19
2023-11-06T12:43:14.215Z,96176.94
2023-11-06T12:45:45.010Z,96169.91
2023-11-06T12:48:27.903Z,96161.09
2023-11-06T12:51:01.018Z,96171.31
2023-11-06T12:53:29.999Z,96168.44
2023-11-06T12:55:57.853Z,96169.75
2023-11-06T12:58:25.898Z,96161.72
2023-11-06T13:00:57.341Z,96176.84
2023-11-06T13:03:26.537Z,96170.78
2023-11-06T13:05:57.735Z,96173.13
2023-11-06T13:08:25.810Z,96165.00
2023-11-06T13:10:53.668Z,96161.22
2023-11-06T13:13:21.336Z,96155.75
2023-11-06T13:15:49.145Z,96150.06
2023-11-06T13:18:18.752Z,96153.66
2023-11-06T13:20:49.318Z,96163.03
2023-11-06T13:23:17.431Z,96155.88
2023-11-06T13:25:45.076Z,96151.72
2023-11-06T13:28:12.768Z,96153.50
2023-11-06T13:30:40.903Z,96156.38
2023-11-06T13:33:09.971Z,96152.47
2023-11-06T13:35:40.311Z,96155.50
2023-11-06T13:38:09.351Z,96159.31
2023-11-06T13:40:38.259Z,96144.84
2023-11-06T13:43:07.688Z,96142.91
2023-11-06T13:45:35.355Z,96145.06
2023-11-06T13:48:10.007Z,96146.31
2023-11-06T13:50:47.841Z,96148.56
2023-11-06T13:53:23.708Z,96150.13
2023-11-06T13:56:08.028Z,96148.56
2023-11-06T13:58:38.306Z,96148.09
2023-11-06T14:01:09.502Z,96151.38
2023-11-06T14:03:37.646Z,96154.66
2023-11-06T14:06:09.575Z,96150.75
2023-11-06T14:08:38.851Z,96160.47
2023-11-06T14:11:06.783Z,96160.34
2023-11-06T14:13:34.598Z,96153.13
2023-11-06T14:16:02.223Z,96160.50
2023-11-06T14:18:30.131Z,96164.19
2023-11-06T14:20:58.752Z,96159.13
2023-11-06T14:23:29.803Z,96166.13
2023-11-06T14:25:59.454Z,96167.16
2023-11-06T14:28:28.411Z,96171.38
2023-11-06T14:30:56.157Z,96175.75
2023-11-06T14:33:25.849Z,96173.34
2023-11-06T14:35:54.957Z,96184.97
2023-11-06T14:38:28.244Z,96171.59
2023-11-06T14:40:57.736Z,96183.91
2023-11-06T14:43:25.423Z,96179.28
2023-11-06T14:45:53.284Z,96187.94
2023-11-06T14:48:22.119Z,96180.41
2023-11-06T14:50:50.029Z,96183.59
2023-11-06T14:53:27.561Z,96185.84
2023-11-06T14:56:06.154Z,96180.44
2023-11-06T14:58:34.197Z,96190.53
2023-11-06T15:01:01.769Z,96197.25
2023-11-06T15:03:30.290Z,96195.16
2023-11-06T15:06:00.430Z,96198.25
2023-11-06T15:08:29.490Z,96200.22
2023-11-06T15:10:57.187Z,96194.00
2023-11-06T15:13:26.089Z,96194.22
2023-11-06T15:15:55.704Z,96192.00
2023-11-06T15:18:23.694Z,96189.66
2023-11-06T15:20:51.554Z,96198.16
2023-11-06T15:23:19.220Z,96185.63
2023-11-06T15:25:46.796Z,96191.31
2023-11-06T15:28:14.691Z,96191.53
2023-11-06T15:30:44.312Z,96189.31
2023-11-06T15:33:12.080Z,96191.09
2023-11-06T15:35:39.934Z,96189.19
2023-11-06T15:38:07.587Z,96187.97
2023-11-06T15:40:35.207Z,96194.22
2023-11-06T15:43:02.838Z,96198.13
2023-11-06T15:45:30.495Z,96203.00
2023-11-06T15:47:59.571Z,96204.97
2023-11-06T15:50:31.078Z,96211.88
2023-11-06T15:52:59.364Z,96213.28
2023-11-06T15:55:27.119Z,96215.03
2023-11-06T15:57:54.765Z,96219.00
2023-11-06T16:00:22.890Z,96227.41
2023-11-06T16:02:50.759Z,96233.28
2023-11-06T16:05:19.856Z,96238.59
2023-11-06T16:07:48.344Z,96246.31
2023-11-06T16:10:16.162Z,96253.06
2023-11-06T16:12:43.915Z,96249.59
2023-11-06T16:15:11.786Z,96265.44
2023-11-06T16:17:40.783Z,96267.72
2023-11-06T16:20:10.022Z,96267.50
2023-11-06T16:22:39.050Z,96275.78
2023-11-06T16:25:07.617Z,96275.34
2023-11-06T16:27:35.281Z,96284.75
2023-11-06T16:30:05.630Z,96288.75
2023-11-06T16:32:33.325Z,96297.16
2023-11-06T16:35:01.459Z,96304.31
2023-11-06T16:37:29.073Z,96296.91
2023-11-06T16:39:58.016Z,96307.78
2023-11-06T16:42:28.984Z,96338.09
2023-11-06T16:44:57.314Z,96353.41
2023-11-06T16:47:24.992Z,96339.59
2023-11-06T16:49:52.697Z,96354.59
2023-11-06T16:52:20.278Z,96355.88
2023-11-06T16:54:47.882Z,96357.97
2023-11-06T16:57:17.050Z,96360.84
2023-11-06T16:59:44.745Z,96365.69
2023-11-06T17:02:12.387Z,96363.81
2023-11-06T17:04:40.131Z,96360.56
2023-11-06T17:07:07.703Z,96364.16
2023-11-06T17:09:36.789Z,96370.41
2023-11-06T17:12:05.685Z,96373.19
2023-11-06T17:14:34.670Z,96377.34
2023-11-06T17:17:04.600Z,96390.47
2023-11-06T17:19:32.491Z,96386.75
2023-11-06T17:22:00.133Z,96392.56
2023-11-06T17:24:28.557Z,96398.94
2023-11-06T17:26:56.510Z,96412.34
2023-11-06T17:29:24.171Z,96428.88
2023-11-06T17:31:54.384Z,96432.88
2023-11-06T17:34:23.957Z,96434.84
2023-11-06T17:36:53.889Z,96443.06
2023-11-06T17:39:22.022Z,96485.63
2023-11-06T17:41:50.034Z,96488.03
2023-11-06T17:44:18.592Z,96499.38
2023-11-06T17:46:47.987Z,96501.56
2023-11-06T17:49:18.510Z,96504.97
2023-11-06T17:51:47.503Z,96506.69
2023-11-06T17:54:17.778Z,96507.50
2023-11-06T17:56:45.473Z,96503.41
2023-11-06T17:59:13.086Z,96507.78
2023-11-06T18:01:40.792Z,96504.66
2023-11-06T18:04:09.669Z,96497.25
2023-11-06T18:06:38.730Z,96498.81
2023-11-06T18:09:06.744Z,96497.19
2023-11-06T18:11:34.606Z,96495.28
2023-11-06T18:14:04.526Z,96476.94
2023-11-06T18:16:33.665Z,96487.38
2023-11-06T18:19:01.794Z,96485.84
2023-11-06T18:21:32.535Z,96473.69
2023-11-06T18:24:01.662Z,96487.16
2023-11-06T18:26:29.258Z,96507.50
2023-11-06T18:28:56.856Z,96527.97
2023-11-06T18:31:25.580Z,96531.53
2023-11-06T18:33:56.150Z,96527.94
2023-11-06T18:36:24.390Z,96546.94
2023-11-06T18:38:52.107Z,96554.44
2023-11-06T18:41:22.050Z,96545.19
2023-11-06T18:43:49.747Z,96554.03
2023-11-06T18:46:17.404Z,96550.94
2023-11-06T18:48:45.545Z,96549.38
2023-11-06T18:51:14.721Z,96558.31
2023-11-06T18:53:45.281Z,96551.69
2023-11-06T18:56:12.920Z,96548.56
2023-11-06T18:58:41.884Z,96531.88
2023-11-06T19:01:09.930Z,96505.03
2023-11-06T19:03:37.605Z,96523.91
2023-11-06T19:06:15.388Z,96507.16
2023-11-06T19:08:48.316Z,96528.59
2023-11-06T19:11:15.949Z,96529.25
2023-11-06T19:13:44.906Z,96540.84
2023-11-06T19:16:14.821Z,96551.41
2023-11-06T19:18:44.378Z,96559.16
2023-11-06T19:21:12.138Z,96549.88
2023-11-06T19:23:39.781Z,96548.47
2023-11-06T19:26:07.844Z,96562.00
2023-11-06T19:28:35.544Z,96569.03
2023-11-06T19:31:05.655Z,96583.06
2023-11-06T19:33:33.612Z,96581.28
2023-11-06T19:36:01.394Z,96580.13
2023-11-06T19:38:30.516Z,96565.66
2023-11-06T19:41:01.513Z,96577.16
2023-11-06T19:43:29.333Z,96570.97
2023-11-06T19:46:00.264Z,96588.97
2023-11-06T19:48:29.388Z,96580.13
2023-11-06T19:50:59.736Z,96586.50
2023-11-06T19:53:27.593Z,96587.13
2023-11-06T19:55:55.190Z,96594.56
2023-11-06T19:58:22.834Z,96590.06
2023-11-06T20:00:50.808Z,96589.28
2023-11-06T20:03:19.419Z,96591.69
2023-11-06T20:05:48.416Z,96601.50
2023-11-06T20:08:17.653Z,96599.88
2023-11-06T20:10:45.428Z,96601.53
2023-11-06T20:13:13.281Z,96607.44
2023-11-06T20:15:41.101Z,96603.91
2023-11-06T20:18:08.867Z,96603.00
2023-11-06T20:20:36.661Z,96604.78
2023-11-06T20:23:05.750Z,96603.06
2023-11-06T20:25:33.413Z,96597.09
2023-11-06T20:28:01.034Z,96609.97
2023-11-06T20:30:28.815Z,96617.59
2023-11-06T20:32:56.646Z,96613.44
2023-11-06T20:35:25.027Z,96614.69
2023-11-06T20:37:52.686Z,96615.94
2023-11-06T20:40:21.837Z,96624.00
2023-11-06T20:42:49.456Z,96640.97
2023-11-06T20:45:17.434Z,96646.16
2023-11-06T20:47:45.171Z,96653.22
2023-11-06T20:50:13.620Z,96659.69
2023-11-06T20:52:42.100Z,96674.66
2023-11-06T20:55:10.478Z,96670.16
2023-11-06T20:57:39.644Z,96674.25
2023-11-06T21:00:09.798Z,96660.66
2023-11-06T21:02:40.026Z,96664.56
2023-11-06T21:05:09.732Z,96660.47
2023-11-06T21:07:37.638Z,96654.78
2023-11-06T21:10:06.474Z,96644.47
2023-11-06T21:12:34.108Z,96647.94
2023-11-06T21:15:03.859Z,96626.00
2023-11-06T21:17:31.737Z,96623.38
2023-11-06T21:19:59.417Z,96611.88
2023-11-06T21:22:27.859Z,96603.88
2023-11-06T21:24:58.115Z,96606.31
2023-11-06T21:27:25.767Z,96615.31
2023-11-06T21:29:53.558Z,96620.69
2023-11-06T21:32:22.924Z,96619.91
2023-11-06T21:34:53.911Z,96621.00
2023-11-06T21:37:22.131Z,96627.25
2023-11-06T21:39:49.815Z,96625.69
2023-11-06T21:42:17.629Z,96630.03
2023-11-06T21:44:45.410Z,96628.72
2023-11-06T21:47:14.608Z,96634.22
2023-11-06T21:49:44.691Z,96633.03
2023-11-06T21:52:12.766Z,96629.91
2023-11-06T21:54:51.089Z,96632.47
2023-11-06T21:57:22.441Z,96636.88
2023-11-06T21:59:50.327Z,96635.59
2023-11-06T22:02:18.268Z,96644.41
2023-11-06T22:04:47.463Z,96651.25
2023-11-06T22:07:15.858Z,96642.75
2023-11-06T22:09:43.489Z,96638.72
2023-11-06T22:12:11.379Z,96641.47
2023-11-06T22:14:39.378Z,96643.63
2023-11-06T22:17:07.762Z,96644.03
2023-11-06T22:19:35.949Z,96659.88
2023-11-06T22:22:06.112Z,96650.97
2023-11-06T22:24:33.841Z,96648.41
2023-11-06T22:27:01.626Z,96647.72
2023-11-06T22:29:29.334Z,96646.94
2023-11-06T22:31:57.303Z,96642.75
2023-11-06T22:34:25.463Z,96642.47
2023-11-06T22:36:53.246Z,96651.28
2023-11-06T22:39:22.257Z,96646.94
2023-11-06T22:41:49.868Z,96662.34
2023-11-06T22:44:19.138Z,96666.63
2023-11-06T22:46:46.745Z,96664.84
2023-11-06T22:49:14.390Z,96662.78
2023-11-06T22:51:42.102Z,96671.72
2023-11-06T22:54:09.720Z,96670.25
2023-11-06T22:56:38.706Z,96669.56
2023-11-06T22:59:06.581Z,96681.41
2023-11-06T23:01:34.233Z,96683.94
2023-11-06T23:04:02.696Z,96679.84
2023-11-06T23:06:30.482Z,96683.75
2023-11-06T23:08:58.647Z,96688.28
2023-11-06T23:11:26.613Z,96676.03
2023-11-06T23:13:55.726Z,96680.44
2023-11-06T23:16:23.385Z,96678.28
2023-11-06T23:18:51.098Z,96668.88
2023-11-06T23:21:19.012Z,96666.72
2023-11-06T23:23:47.095Z,96664.09
2023-11-06T23:26:14.934Z,96664.00
2023-11-06T23:28:42.532Z,96662.13
2023-11-06T23:31:11.973Z,96666.94
2023-11-06T23:33:40.177Z,96668.09
2023-11-06T23:36:09.422Z,96658.72
2023-11-06T23:38:37.088Z,96652.03
2023-11-06T23:41:04.933Z,96666.81
2023-11-06T23:43:32.520Z,96660.25
2023-11-06T23:46:00.145Z,96660.09
2023-11-06T23:48:29.207Z,96667.22
2023-11-06T23:50:57.030Z,96663.59
2023-11-06T23:53:24.674Z,96659.47
2023-11-06T23:55:52.414Z,96649.72
2023-11-06T23:58:20.121Z,96650.28
